createdAt,value
2023-11-01T00:01:22.043Z,100428.53
2023-11-01T00:03:48.808Z,100417.59
2023-11-01T00:06:15.667Z,100424.56
2023-11-01T00:08:42.304Z,100424.38
2023-11-01T00:11:08.948Z,100430.63
2023-11-01T00:13:35.821Z,100431.34
2023-11-01T00:16:04.368Z,100428.47
2023-11-01T00:18:31.885Z,100434.72
2023-11-01T00:20:58.633Z,100432.00
2023-11-01T00:23:25.278Z,100431.03
2023-11-01T00:25:51.874Z,100443.34
2023-11-01T00:28:18.481Z,100448.59
2023-11-01T00:30:45.065Z,100444.06
2023-11-01T00:33:13.233Z,100443.19
2023-11-01T00:35:39.934Z,100443.19
2023-11-01T00:38:07.187Z,100439.50
2023-11-01T00:40:33.835Z,100440.34
2023-11-01T00:43:00.441Z,100446.44
2023-11-01T00:45:27.037Z,100445.44
2023-11-01T00:47:53.834Z,100448.81
2023-11-01T00:50:22.269Z,100448.81
2023-11-01T00:52:49.065Z,100442.59
2023-11-01T00:55:15.712Z,100435.31
2023-11-01T00:57:42.343Z,100434.50
2023-11-01T01:00:09.887Z,100444.28
2023-11-01T01:02:36.838Z,100438.03
2023-11-01T01:05:03.751Z,100432.63
2023-11-01T01:07:31.714Z,100446.84
2023-11-01T01:09:58.334Z,100450.53
2023-11-01T01:12:24.953Z,100443.13
2023-11-01T01:14:51.719Z,100449.38
2023-11-01T01:17:18.827Z,100447.69
2023-11-01T01:19:45.515Z,100452.22
2023-11-01T01:22:12.074Z,100453.09
2023-11-01T01:24:40.112Z,100444.00
2023-11-01T01:27:06.797Z,100444.13
2023-11-01T01:29:33.558Z,100437.75
2023-11-01T01:32:00.214Z,100438.59
2023-11-01T01:34:26.962Z,100434.03
2023-11-01T01:36:53.572Z,100441.97
2023-11-01T01:39:20.336Z,100443.66
2023-11-01T01:41:48.322Z,100439.97
2023-11-01T01:44:15.253Z,100442.69
2023-11-01T01:46:42.620Z,100436.25
2023-11-01T01:49:09.576Z,100432.56
2023-11-01T01:51:36.386Z,100434.41
2023-11-01T01:54:03.340Z,100429.00
2023-11-01T01:56:30.849Z,100428.88
2023-11-01T01:58:59.563Z,100435.13
2023-11-01T02:01:35.593Z,100423.47
2023-11-01T02:04:09.600Z,100427.16
2023-11-01T02:06:36.505Z,100423.47
2023-11-01T02:09:03.480Z,100427.00
2023-11-01T02:11:30.122Z,100427.00
2023-11-01T02:13:58.280Z,100423.31
2023-11-01T02:16:24.871Z,100428.53
2023-11-01T02:18:51.450Z,100426.69
2023-11-01T02:21:18.146Z,100422.16
2023-11-01T02:23:46.717Z,100433.66
2023-11-01T02:26:13.573Z,100428.25
2023-11-01T02:28:40.140Z,100441.75
2023-11-01T02:31:06.797Z,100428.25
2023-11-01T02:33:33.466Z,100431.94
2023-11-01T02:36:00.125Z,100428.25
2023-11-01T02:38:26.882Z,100429.94
2023-11-01T02:40:54.949Z,100431.63
2023-11-01T02:43:21.520Z,100432.50
2023-11-01T02:45:48.721Z,100428.09
2023-11-01T02:48:15.413Z,100426.22
2023-11-01T02:50:42.267Z,100429.78
2023-11-01T02:53:08.879Z,100428.78
2023-11-01T02:55:35.462Z,100429.63
2023-11-01T02:58:04.355Z,100427.78
2023-11-01T03:00:31.042Z,100429.63
2023-11-01T03:02:57.867Z,100429.47
2023-11-01T03:05:24.864Z,100424.06
2023-11-01T03:07:51.551Z,100422.22
2023-11-01T03:10:18.248Z,100426.75
2023-11-01T03:12:45.197Z,100438.41
2023-11-01T03:15:13.759Z,100431.31
2023-11-01T03:17:40.728Z,100436.72
2023-11-01T03:20:08.468Z,100435.03
2023-11-01T03:22:35.641Z,100432.16
2023-11-01T03:25:02.901Z,100439.28
2023-11-01T03:27:29.640Z,100438.41
2023-11-01T03:29:56.800Z,100442.81
2023-11-01T03:32:24.878Z,100441.13
2023-11-01T03:34:52.050Z,100439.41
2023-11-01T03:37:18.797Z,100444.00
2023-11-01T03:39:45.495Z,100451.06
2023-11-01T03:42:12.160Z,100444.66
2023-11-01T03:44:39.084Z,100443.81
2023-11-01T03:47:05.685Z,100432.03
2023-11-01T03:49:33.724Z,100439.13
2023-11-01T03:52:01.792Z,100425.63
2023-11-01T03:54:28.586Z,100435.44
2023-11-01T03:56:55.287Z,100427.34
2023-11-01T03:59:21.934Z,100432.72
2023-11-01T04:01:48.558Z,100438.81
2023-11-01T04:04:15.311Z,100433.41
2023-11-01T04:06:43.676Z,100435.97
2023-11-01T04:09:10.344Z,100433.25
2023-11-01T04:11:37.152Z,100435.97
2023-11-01T04:14:03.793Z,100420.75
2023-11-01T04:16:30.649Z,100417.34
2023-11-01T04:18:57.468Z,100409.25
2023-11-01T04:21:24.100Z,100419.91
2023-11-01T04:23:52.639Z,100425.31
2023-11-01T04:26:19.393Z,100421.94
2023-11-01T04:28:46.701Z,100422.94
2023-11-01T04:31:13.766Z,100418.19
2023-11-01T04:33:40.365Z,100418.19
2023-11-01T04:36:07.614Z,100407.41
2023-11-01T04:38:34.541Z,100408.25
2023-11-01T04:41:02.724Z,100412.97
2023-11-01T04:43:29.340Z,100415.81
2023-11-01T04:45:55.983Z,100407.00
2023-11-01T04:48:22.739Z,100400.09
2023-11-01T04:50:52.589Z,100404.63
2023-11-01T04:53:19.742Z,100413.44
2023-11-01T04:55:48.414Z,100404.31
2023-11-01T04:58:16.545Z,100405.16
2023-11-01T05:00:43.145Z,100400.63
2023-11-01T05:03:09.724Z,100403.84
2023-11-01T05:05:36.580Z,100401.31
2023-11-01T05:08:03.249Z,100402.19
2023-11-01T05:10:30.229Z,100404.03
2023-11-01T05:12:56.831Z,100394.38
2023-11-01T05:15:24.800Z,100398.91
2023-11-01T05:17:51.506Z,100402.66
2023-11-01T05:20:18.367Z,100397.25
2023-11-01T05:22:45.016Z,100394.53
2023-11-01T05:25:11.700Z,100391.84
2023-11-01T05:27:38.383Z,100392.69
2023-11-01T05:30:06.029Z,100391.66
2023-11-01T05:32:34.020Z,100398.09
2023-11-01T05:35:00.651Z,100403.50
2023-11-01T05:37:27.234Z,100404.50
2023-11-01T05:39:53.796Z,100392.00
2023-11-01T05:42:20.398Z,100401.78
2023-11-01T05:44:46.975Z,100393.84
2023-11-01T05:47:13.865Z,100406.47
2023-11-01T05:49:41.905Z,100399.25
2023-11-01T05:52:08.594Z,100405.50
2023-11-01T05:54:35.165Z,100404.63
2023-11-01T05:57:01.774Z,100402.94
2023-11-01T05:59:28.406Z,100406.66
2023-11-01T06:01:55.017Z,100399.56
2023-11-01T06:04:21.654Z,100397.84
2023-11-01T06:06:49.721Z,100404.56
2023-11-01T06:09:16.744Z,100410.97
2023-11-01T06:11:43.476Z,100408.25
2023-11-01T06:14:10.043Z,100416.38
2023-11-01T06:16:36.706Z,100418.06
2023-11-01T06:19:03.315Z,100412.66
2023-11-01T06:21:29.983Z,100414.50
2023-11-01T06:23:58.144Z,100419.06
2023-11-01T06:26:24.803Z,100419.91
2023-11-01T06:28:51.393Z,100419.78
2023-11-01T06:31:18.006Z,100417.06
2023-11-01T06:33:44.706Z,100419.78
2023-11-01T06:36:12.096Z,100424.00
2023-11-01T06:38:38.795Z,100421.31
2023-11-01T06:41:07.201Z,100424.84
2023-11-01T06:43:33.919Z,100424.84
2023-11-01T06:46:00.662Z,100426.56
2023-11-01T06:48:27.271Z,100420.16
2023-11-01T06:50:53.952Z,100407.66
2023-11-01T06:53:20.609Z,100414.06
2023-11-01T06:55:47.249Z,100408.78
2023-11-01T06:58:15.237Z,100410.34
2023-11-01T07:00:41.831Z,100405.81
2023-11-01T07:03:10.972Z,100407.50
2023-11-01T07:05:38.597Z,100407.34
2023-11-01T07:08:05.310Z,100411.75
2023-11-01T07:10:33.224Z,100416.16
2023-11-01T07:12:59.955Z,100422.22
2023-11-01T07:15:28.120Z,100405.72
2023-11-01T07:17:54.864Z,100412.66
2023-11-01T07:20:21.497Z,100408.50
2023-11-01T07:22:48.209Z,100409.16
2023-11-01T07:25:14.984Z,100411.56
2023-11-01T07:27:41.743Z,100410.09
2023-11-01T07:30:09.436Z,100405.06
2023-11-01T07:32:37.618Z,100399.88
2023-11-01T07:35:04.998Z,100394.84
2023-11-01T07:37:31.601Z,100394.34
2023-11-01T07:39:58.251Z,100394.06
2023-11-01T07:42:25.084Z,100392.75
2023-11-01T07:44:51.923Z,100394.97
2023-11-01T07:47:18.523Z,100392.78
2023-11-01T07:49:46.563Z,100386.19
2023-11-01T07:52:13.268Z,100388.59
2023-11-01T07:54:40.054Z,100378.59
2023-11-01T07:57:06.751Z,100383.88
2023-11-01T07:59:33.441Z,100382.00
2023-11-01T08:02:02.070Z,100385.41
2023-11-01T08:04:29.023Z,100381.69
2023-11-01T08:06:57.072Z,100378.84
2023-11-01T08:09:23.882Z,100383.06
2023-11-01T08:11:51.171Z,100381.94
2023-11-01T08:14:17.833Z,100377.06
2023-11-01T08:16:44.592Z,100378.56
2023-11-01T08:19:11.251Z,100378.94
2023-11-01T08:21:38.112Z,100375.75
2023-11-01T08:24:07.777Z,100380.00
2023-11-01T08:26:34.460Z,100375.97
2023-11-01T08:29:01.058Z,100379.03
2023-11-01T08:31:27.806Z,100383.91
2023-11-01T08:33:54.608Z,100381.75
2023-11-01T08:36:21.496Z,100378.88
2023-11-01T08:38:48.173Z,100372.31
2023-11-01T08:41:17.540Z,100367.41
2023-11-01T08:43:44.310Z,100379.59
2023-11-01T08:46:11.738Z,100369.28
2023-11-01T08:48:38.384Z,100369.63
2023-11-01T08:51:05.735Z,100371.00
2023-11-01T08:53:33.079Z,100366.78
2023-11-01T08:56:00.116Z,100365.09
2023-11-01T08:58:28.164Z,100351.78
2023-11-01T09:00:55.067Z,100362.75
2023-11-01T09:03:21.787Z,100357.53
2023-11-01T09:05:48.528Z,100351.44
2023-11-01T09:08:15.273Z,100359.06
2023-11-01T09:10:41.910Z,100350.44
2023-11-01T09:13:08.504Z,100342.66
2023-11-01T09:15:36.510Z,100343.66
2023-11-01T09:18:03.509Z,100338.91
2023-11-01T09:20:30.267Z,100350.44
2023-11-01T09:23:00.180Z,100341.44
2023-11-01T09:25:27.001Z,100332.44
2023-11-01T09:27:53.813Z,100333.50
2023-11-01T09:30:20.651Z,100339.91
2023-11-01T09:32:48.842Z,100346.31
2023-11-01T09:35:15.480Z,100344.94
2023-11-01T09:37:42.091Z,100347.13
2023-11-01T09:40:09.774Z,100340.34
2023-11-01T09:42:36.546Z,100337.09
2023-11-01T09:45:03.947Z,100333.72
2023-11-01T09:47:30.923Z,100334.03
2023-11-01T09:49:59.405Z,100328.94
2023-11-01T09:52:26.480Z,100321.13
2023-11-01T09:54:53.581Z,100325.16
2023-11-01T09:57:22.624Z,100321.91
2023-11-01T09:59:49.613Z,100323.06
2023-11-01T10:02:16.771Z,100320.50
2023-11-01T10:04:44.136Z,100315.88
2023-11-01T10:07:12.698Z,100313.09
2023-11-01T10:09:40.470Z,100311.34
2023-11-01T10:12:07.730Z,100310.28
2023-11-01T10:14:36.832Z,100306.66
2023-11-01T10:17:04.348Z,100304.91
2023-11-01T10:19:31.606Z,100299.13
2023-11-01T10:21:58.895Z,100301.44
2023-11-01T10:24:27.576Z,100302.63
2023-11-01T10:26:55.581Z,100286.66
2023-11-01T10:29:22.634Z,100286.75
2023-11-01T10:31:53.319Z,100282.28
2023-11-01T10:34:20.027Z,100278.25
2023-11-01T10:36:50.093Z,100280.53
2023-11-01T10:39:18.354Z,100274.00
2023-11-01T10:41:48.428Z,100261.81
2023-11-01T10:44:15.835Z,100257.97
2023-11-01T10:46:42.698Z,100252.41
2023-11-01T10:49:10.701Z,100251.50
2023-11-01T10:51:38.504Z,100250.38
2023-11-01T10:54:06.605Z,100245.84
2023-11-01T10:56:33.656Z,100242.56
2023-11-01T10:59:08.104Z,100235.50
2023-11-01T11:01:39.711Z,100233.69
2023-11-01T11:04:17.326Z,100222.09
2023-11-01T11:06:52.635Z,100224.88
2023-11-01T11:09:20.106Z,100226.00
2023-11-01T11:12:14.589Z,100220.81
2023-11-01T11:14:43.635Z,100227.81
2023-11-01T11:17:14.119Z,100210.50
2023-11-01T11:20:12.754Z,100210.56
2023-11-01T11:23:13.491Z,100211.84
2023-11-01T11:25:50.700Z,100209.38
2023-11-01T11:28:42.882Z,100209.00
2023-11-01T11:31:11.910Z,100202.13
2023-11-01T11:33:59.637Z,100204.06
2023-11-01T11:36:27.266Z,100202.44
2023-11-01T11:38:55.417Z,100192.81
2023-11-01T11:41:24.000Z,100185.28
2023-11-01T11:44:05.108Z,100185.75
2023-11-01T11:46:34.948Z,100190.59
2023-11-01T11:49:02.677Z,100189.34
2023-11-01T11:51:29.856Z,100187.06
2023-11-01T11:53:56.503Z,100188.34
2023-11-01T11:56:23.714Z,100183.75
2023-11-01T11:58:50.819Z,100189.19
2023-11-01T12:01:24.494Z,100189.19
2023-11-01T12:03:52.855Z,100181.03
2023-11-01T12:06:19.601Z,100184.59
2023-11-01T12:08:46.270Z,100189.00
2023-11-01T12:11:13.138Z,100185.44
2023-11-01T12:13:41.138Z,100174.53
2023-11-01T12:16:08.347Z,100164.72
2023-11-01T12:18:35.127Z,100166.44
2023-11-01T12:21:13.115Z,100165.84
2023-11-01T12:23:46.680Z,100157.09
2023-11-01T12:26:13.391Z,100164.03
2023-11-01T12:28:40.005Z,100157.13
2023-11-01T12:31:16.293Z,100154.84
2023-11-01T12:33:43.146Z,100144.75
2023-11-01T12:36:09.841Z,100148.34
2023-11-01T12:38:44.499Z,100149.19
2023-11-01T12:41:11.454Z,100144.13
2023-11-01T12:43:38.244Z,100142.63
2023-11-01T12:46:05.071Z,100136.97
2023-11-01T12:48:32.071Z,100138.56
2023-11-01T12:50:58.845Z,100138.78
2023-11-01T12:53:25.474Z,100139.81
2023-11-01T12:55:53.417Z,100137.31
2023-11-01T12:58:19.998Z,100137.06
2023-11-01T13:00:49.635Z,100143.19
2023-11-01T13:03:16.680Z,100139.44
2023-11-01T13:05:43.634Z,100143.00
2023-11-01T13:08:10.379Z,100141.78
2023-11-01T13:10:37.083Z,100136.97
2023-11-01T13:13:07.602Z,100138.19
2023-11-01T13:15:34.653Z,100133.97
2023-11-01T13:18:01.377Z,100131.44
2023-11-01T13:20:28.289Z,100136.88
2023-11-01T13:22:55.205Z,100125.34
2023-11-01T13:25:21.872Z,100132.69
2023-11-01T13:27:48.532Z,100127.25
2023-11-01T13:30:16.741Z,100123.84
2023-11-01T13:32:43.791Z,100126.59
2023-11-01T13:35:10.455Z,100120.09
2023-11-01T13:37:40.235Z,100120.09
2023-11-01T13:40:08.291Z,100120.09
2023-11-01T13:42:34.872Z,100119.25
2023-11-01T13:45:01.695Z,100112.94
2023-11-01T13:47:32.068Z,100109.78
2023-11-01T13:49:59.427Z,100112.09
2023-11-01T13:52:26.019Z,100114.16
2023-11-01T13:54:52.720Z,100103.66
2023-11-01T13:57:19.703Z,100107.44
2023-11-01T13:59:46.341Z,100104.06
2023-11-01T14:02:13.137Z,100099.47
2023-11-01T14:04:42.997Z,100096.53
2023-11-01T14:07:09.731Z,100096.53
2023-11-01T14:09:36.300Z,100092.09
2023-11-01T14:12:03.316Z,100092.09
2023-11-01T14:14:29.897Z,100088.75
2023-11-01T14:16:56.455Z,100098.16
2023-11-01T14:19:23.155Z,100089.38
2023-11-01T14:21:51.278Z,100083.47
2023-11-01T14:24:19.913Z,100076.75
2023-11-01T14:26:47.196Z,100078.38
2023-11-01T14:29:13.831Z,100081.28
2023-11-01T14:31:40.834Z,100069.97
2023-11-01T14:34:07.935Z,100076.66
2023-11-01T14:36:34.597Z,100077.88
2023-11-01T14:39:02.837Z,100067.22
2023-11-01T14:41:29.579Z,100074.09
2023-11-01T14:43:58.474Z,100075.50
2023-11-01T14:46:26.957Z,100064.41
2023-11-01T14:48:53.786Z,100067.31
2023-11-01T14:51:20.479Z,100063.13
2023-11-01T14:53:47.390Z,100059.75
2023-11-01T14:56:17.503Z,100059.13
2023-11-01T14:58:45.383Z,100055.72
2023-11-01T15:01:12.007Z,100061.38
2023-11-01T15:03:40.075Z,100047.97
2023-11-01T15:06:07.221Z,100042.91
2023-11-01T15:08:33.969Z,100037.44
2023-11-01T15:11:00.592Z,100035.78
2023-11-01T15:13:28.632Z,100037.84
2023-11-01T15:15:56.767Z,100033.44
2023-11-01T15:18:32.708Z,100021.94
2023-11-01T15:20:59.613Z,100029.44
2023-11-01T15:23:26.389Z,100020.66
2023-11-01T15:25:52.971Z,100022.72
2023-11-01T15:28:19.588Z,100017.66
2023-11-01T15:30:47.794Z,100018.06
2023-11-01T15:33:14.688Z,100013.00
2023-11-01T15:35:41.392Z,100007.97
2023-11-01T15:38:08.101Z,100008.38
2023-11-01T15:40:34.694Z,100003.31
2023-11-01T15:43:01.289Z,99999.25
2023-11-01T15:45:28.013Z,99991.50
2023-11-01T15:47:56.206Z,99987.31
2023-11-01T15:50:23.218Z,99987.69
2023-11-01T15:52:50.040Z,99985.56
2023-11-01T15:55:16.836Z,99986.13
2023-11-01T15:57:44.791Z,99985.91
2023-11-01T16:00:12.994Z,99978.34
2023-11-01T16:02:39.774Z,99977.03
2023-11-01T16:05:08.731Z,99976.78
2023-11-01T16:07:35.465Z,99980.28
2023-11-01T16:10:02.071Z,99991.56
2023-11-01T16:12:28.662Z,99978.53
2023-11-01T16:14:57.023Z,99987.28
2023-11-01T16:17:23.721Z,99982.81
2023-11-01T16:19:51.194Z,99982.56
2023-11-01T16:22:19.372Z,99985.00
2023-11-01T16:24:46.123Z,99978.47
2023-11-01T16:27:12.792Z,99989.72
2023-11-01T16:29:39.571Z,99988.44
2023-11-01T16:32:07.461Z,99986.06
2023-11-01T16:34:34.346Z,99985.00
2023-11-01T16:37:01.217Z,99981.59
2023-11-01T16:39:29.261Z,99991.19
2023-11-01T16:41:55.907Z,99991.75
2023-11-01T16:44:22.678Z,99985.84
2023-11-01T16:46:49.265Z,99991.69
2023-11-01T16:49:15.927Z,99990.38
2023-11-01T16:51:42.530Z,99991.59
2023-11-01T16:54:09.309Z,99987.56
2023-11-01T16:56:37.508Z,99987.25
2023-11-01T16:59:04.216Z,99986.63
2023-11-01T17:01:31.031Z,99983.44
2023-11-01T17:03:57.784Z,99989.25
2023-11-01T17:06:24.488Z,99988.78
2023-11-01T17:08:51.310Z,99990.38
2023-11-01T17:11:17.900Z,99986.72
2023-11-01T17:13:46.190Z,99996.09
2023-11-01T17:16:12.932Z,99998.53
2023-11-01T17:18:39.875Z,100001.81
2023-11-01T17:21:07.212Z,100006.78
2023-11-01T17:23:34.257Z,100005.47
2023-11-01T17:26:22.301Z,100005.63
2023-11-01T17:28:50.368Z,99999.53
2023-11-01T17:31:33.904Z,99999.75
2023-11-01T17:34:00.586Z,99997.88
2023-11-01T17:36:28.675Z,99999.91
2023-11-01T17:38:56.502Z,99999.28
2023-11-01T17:41:59.913Z,100000.31
2023-11-01T17:44:29.846Z,99998.63
2023-11-01T17:46:58.715Z,99997.75
2023-11-01T17:49:54.135Z,99998.78
2023-11-01T17:52:32.183Z,99997.75
2023-11-01T17:55:00.553Z,99995.22
2023-11-01T17:57:27.217Z,99993.56
2023-11-01T17:59:56.087Z,99997.13
2023-11-01T18:03:20.069Z,99998.16
2023-11-01T18:05:47.388Z,99990.19
2023-11-01T18:08:17.923Z,99991.03
2023-11-01T18:10:47.102Z,99983.72
2023-11-01T18:13:21.719Z,99988.13
2023-11-01T18:15:51.527Z,99978.47
2023-11-01T18:18:38.075Z,99984.75
2023-11-01T18:21:06.789Z,99984.13
2023-11-01T18:23:33.602Z,99984.28
2023-11-01T18:26:14.056Z,99980.72
2023-11-01T18:28:41.644Z,99981.75
2023-11-01T18:31:15.332Z,99979.25
2023-11-01T18:33:42.398Z,99972.31
2023-11-01T18:36:13.378Z,99967.09
2023-11-01T18:38:48.733Z,99968.75
2023-11-01T18:41:15.590Z,99958.09
2023-11-01T18:43:43.238Z,99961.66
2023-11-01T18:46:11.271Z,99954.53
2023-11-01T18:48:38.078Z,99952.84
2023-11-01T18:51:10.004Z,99957.25
2023-11-01T18:53:41.368Z,99944.88
2023-11-01T18:56:09.985Z,99951.16
2023-11-01T18:58:38.511Z,99952.84
2023-11-01T19:01:05.529Z,99952.84
2023-11-01T19:03:33.972Z,99950.31
2023-11-01T19:06:00.829Z,99955.72
2023-11-01T19:08:28.509Z,99950.31
2023-11-01T19:10:55.247Z,99944.06
2023-11-01T19:13:22.718Z,99940.50
2023-11-01T19:16:11.049Z,99944.88
2023-11-01T19:18:39.335Z,99938.66
2023-11-01T19:21:06.147Z,99945.72
2023-11-01T19:23:32.733Z,99938.44
2023-11-01T19:25:59.675Z,99941.16
2023-11-01T19:28:26.449Z,99933.22
2023-11-01T19:30:53.188Z,99941.53
2023-11-01T19:33:26.807Z,99933.56
2023-11-01T19:36:07.855Z,99931.88
2023-11-01T19:38:40.718Z,99932.94
2023-11-01T19:41:07.393Z,99934.34
2023-11-01T19:43:34.109Z,99925.53
2023-11-01T19:46:00.864Z,99927.59
2023-11-01T19:48:27.634Z,99922.34
2023-11-01T19:50:54.433Z,99919.81
2023-11-01T19:53:22.499Z,99917.09
2023-11-01T19:55:49.204Z,99918.31
2023-11-01T19:58:16.109Z,99927.47
2023-11-01T20:00:42.806Z,99923.06
2023-11-01T20:03:09.593Z,99921.59
2023-11-01T20:05:37.053Z,99914.47
2023-11-01T20:08:03.687Z,99916.16
2023-11-01T20:10:31.745Z,99909.06
2023-11-01T20:12:58.434Z,99908.22
2023-11-01T20:15:25.052Z,99904.66
2023-11-01T20:17:51.886Z,99903.00
2023-11-01T20:20:18.680Z,99895.66
2023-11-01T20:22:45.233Z,99893.16
2023-11-01T20:25:12.922Z,99890.63
2023-11-01T20:27:41.596Z,99890.81
2023-11-01T20:30:08.949Z,99883.03
2023-11-01T20:32:36.461Z,99884.06
2023-11-01T20:35:03.224Z,99887.16
2023-11-01T20:37:29.944Z,99883.81
2023-11-01T20:39:56.615Z,99880.59
2023-11-01T20:42:23.462Z,99882.84
2023-11-01T20:44:54.112Z,99884.06
2023-11-01T20:47:20.890Z,99880.88
2023-11-01T20:49:47.591Z,99867.69
2023-11-01T20:52:14.452Z,99861.41
2023-11-01T20:54:44.076Z,99865.19
2023-11-01T20:57:10.912Z,99860.91
2023-11-01T20:59:37.506Z,99853.16
2023-11-01T21:02:05.532Z,99847.06
2023-11-01T21:04:32.221Z,99843.72
2023-11-01T21:06:59.312Z,99846.81
2023-11-01T21:09:26.598Z,99851.56
2023-11-01T21:11:53.335Z,99849.88
2023-11-01T21:14:19.985Z,99844.66
2023-11-01T21:16:46.747Z,99850.25
2023-11-01T21:19:15.052Z,99840.41
2023-11-01T21:21:41.870Z,99835.22
2023-11-01T21:24:09.031Z,99832.50
2023-11-01T21:26:35.693Z,99828.28
2023-11-01T21:29:02.429Z,99818.47
2023-11-01T21:31:29.034Z,99821.16
2023-11-01T21:33:55.919Z,99821.38
2023-11-01T21:36:23.992Z,99811.72
2023-11-01T21:38:57.315Z,99808.38
2023-11-01T21:41:24.232Z,99797.72
2023-11-01T21:43:56.356Z,99788.94
2023-11-01T21:46:28.965Z,99781.00
2023-11-01T21:48:56.487Z,99776.59
2023-11-01T21:51:27.433Z,99778.47
2023-11-01T21:53:54.317Z,99785.75
2023-11-01T21:56:23.902Z,99798.25
2023-11-01T21:58:59.560Z,99800.34
2023-11-01T22:01:26.956Z,99797.63
2023-11-01T22:03:53.844Z,99796.56
2023-11-01T22:06:28.615Z,99797.41
2023-11-01T22:09:00.574Z,99785.75
2023-11-01T22:11:29.147Z,99788.44
2023-11-01T22:13:56.795Z,99786.59
2023-11-01T22:16:30.901Z,99771.19
2023-11-01T22:18:59.176Z,99767.63
2023-11-01T22:21:31.718Z,99783.03
2023-11-01T22:24:00.269Z,99778.66
2023-11-01T22:26:27.158Z,99785.09
2023-11-01T22:28:53.821Z,99787.97
2023-11-01T22:31:41.420Z,99776.50
2023-11-01T22:34:09.097Z,99773.97
2023-11-01T22:36:43.934Z,99762.28
2023-11-01T22:39:10.598Z,99763.31
2023-11-01T22:41:37.373Z,99759.97
2023-11-01T22:44:05.103Z,99760.13
2023-11-01T22:46:31.856Z,99769.28
2023-11-01T22:48:58.896Z,99773.22
2023-11-01T22:51:25.666Z,99773.38
2023-11-01T22:53:53.876Z,99768.34
2023-11-01T22:56:20.459Z,99767.50
2023-11-01T22:58:47.115Z,99768.50
2023-11-01T23:01:13.869Z,99766.00
2023-11-01T23:03:41.883Z,99766.19
2023-11-01T23:06:08.958Z,99760.94
2023-11-01T23:08:36.046Z,99761.13
2023-11-01T23:11:04.904Z,99754.88
2023-11-01T23:13:31.620Z,99752.16
2023-11-01T23:15:58.718Z,99752.00
2023-11-01T23:18:25.685Z,99751.78
2023-11-01T23:20:52.417Z,99746.22
2023-11-01T23:23:20.547Z,99727.06
2023-11-01T23:25:47.149Z,99726.03
2023-11-01T23:28:38.719Z,99707.75
2023-11-01T23:31:05.804Z,99710.47
2023-11-01T23:33:33.879Z,99705.91
2023-11-01T23:36:01.056Z,99697.56
2023-11-01T23:38:29.275Z,99689.44
2023-11-01T23:40:56.490Z,99686.56
2023-11-01T23:43:32.229Z,99686.41
2023-11-01T23:46:14.158Z,99680.97
2023-11-01T23:48:41.067Z,99680.97
2023-11-01T23:51:08.997Z,99677.44
2023-11-01T23:53:35.856Z,99676.75
2023-11-01T23:56:03.789Z,99679.66
2023-11-01T23:58:33.386Z,99675.44
